createdAt,value
2019-03-12T00:01:04.736Z,96075
2019-03-12T00:02:14.249Z,96072
2019-03-12T00:03:23.776Z,96085
2019-03-12T00:04:33.290Z,96077
2019-03-12T00:05:42.791Z,96083
2019-03-12T00:06:52.303Z,96079
2019-03-12T00:08:01.818Z,96081
2019-03-12T00:09:11.341Z,96072
2019-03-12T00:10:20.846Z,96067
2019-03-12T00:11:30.386Z,96089
2019-03-12T00:12:39.939Z,96095
2019-03-12T00:13:49.465Z,96073
2019-03-12T00:14:58.967Z,96078
2019-03-12T00:16:08.471Z,96083
2019-03-12T00:17:17.993Z,96087
2019-03-12T00:18:28.508Z,96082
2019-03-12T00:19:37.024Z,96085
2019-03-12T00:20:46.538Z,96097
2019-03-12T00:21:56.046Z,96098
2019-03-12T00:23:05.575Z,96094
2019-03-12T00:24:15.086Z,96090
2019-03-12T00:25:24.599Z,96093
2019-03-12T00:26:34.121Z,96106
2019-03-12T00:27:43.631Z,96109
2019-03-12T00:28:53.159Z,96101
2019-03-12T00:30:02.672Z,96104
2019-03-12T00:31:12.184Z,96119
2019-03-12T00:32:21.692Z,96127
2019-03-12T00:33:31.205Z,96125
2019-03-12T00:34:40.738Z,96117
2019-03-12T00:35:50.257Z,96127
2019-03-12T00:36:59.766Z,96125
2019-03-12T00:38:09.298Z,96127
2019-03-12T00:39:18.809Z,96135
2019-03-12T00:40:28.329Z,96130
2019-03-12T00:41:37.861Z,96127
2019-03-12T00:42:47.369Z,96123
2019-03-12T00:43:56.893Z,96126
2019-03-12T00:45:06.412Z,96127
2019-03-12T00:46:15.949Z,96133
2019-03-12T00:47:25.463Z,96120
2019-03-12T00:48:34.995Z,96139
2019-03-12T00:49:44.513Z,96115
2019-03-12T00:50:54.042Z,96117
2019-03-12T00:52:03.555Z,96114
2019-03-12T00:53:13.086Z,96129
2019-03-12T00:54:22.594Z,96119
2019-03-12T00:55:32.110Z,96126
2019-03-12T00:56:41.652Z,96126
2019-03-12T00:57:51.181Z,96119
2019-03-12T00:59:00.718Z,96117
2019-03-12T01:00:10.219Z,96124
2019-03-12T01:01:19.730Z,96121
2019-03-12T01:02:29.246Z,96130
2019-03-12T01:03:38.773Z,96130
2019-03-12T01:04:48.302Z,96134
2019-03-12T01:05:57.847Z,96129
2019-03-12T01:07:07.379Z,96144
2019-03-12T01:08:16.889Z,96142
2019-03-12T01:09:26.430Z,96146
2019-03-12T01:10:35.990Z,96148
2019-03-12T01:11:45.495Z,96153
2019-03-12T01:12:55.014Z,96156
2019-03-12T01:14:04.540Z,96150
2019-03-12T01:15:14.060Z,96157
2019-03-12T01:16:23.564Z,96154
2019-03-12T01:17:33.077Z,96146
2019-03-12T01:18:42.607Z,96161
2019-03-12T01:19:52.138Z,96163
2019-03-12T01:21:01.646Z,96146
2019-03-12T01:22:11.158Z,96167
2019-03-12T01:23:20.668Z,96166
2019-03-12T01:24:30.195Z,96162
2019-03-12T01:25:39.711Z,96162
2019-03-12T01:26:49.232Z,96173
2019-03-12T01:27:58.761Z,96189
2019-03-12T01:29:08.291Z,96172
2019-03-12T01:30:17.805Z,96168
2019-03-12T01:31:27.318Z,96168
2019-03-12T01:32:36.830Z,96171
2019-03-12T01:33:46.356Z,96173
2019-03-12T01:34:55.890Z,96176
2019-03-12T01:36:05.397Z,96180
2019-03-12T01:37:14.920Z,96182
2019-03-12T01:38:24.450Z,96183
2019-03-12T01:39:33.981Z,96175
2019-03-12T01:40:43.503Z,96181
2019-03-12T01:41:53.033Z,96178
2019-03-12T01:43:02.552Z,96182
2019-03-12T01:44:12.065Z,96172
2019-03-12T01:45:21.580Z,96177
2019-03-12T01:46:31.094Z,96184
2019-03-12T01:47:40.609Z,96178
2019-03-12T01:48:50.192Z,96179
2019-03-12T01:49:59.713Z,96184
2019-03-12T01:51:09.264Z,96180
2019-03-12T01:52:18.795Z,96175
2019-03-12T01:53:28.303Z,96177
2019-03-12T01:54:37.829Z,96171
2019-03-12T01:55:47.345Z,96181
2019-03-12T01:56:56.861Z,96175
2019-03-12T01:58:06.376Z,96189
2019-03-12T01:59:16.900Z,96168
2019-03-12T02:00:26.415Z,96182
2019-03-12T02:01:35.937Z,96185
2019-03-12T02:02:45.455Z,96177
2019-03-12T02:03:55.021Z,96177
2019-03-12T02:05:04.541Z,96174
2019-03-12T02:06:14.054Z,96180
2019-03-12T02:07:23.566Z,96173
2019-03-12T02:08:33.109Z,96177
2019-03-12T02:09:42.647Z,96193
2019-03-12T02:10:52.170Z,96182
2019-03-12T02:12:01.699Z,96193
2019-03-12T02:13:11.210Z,96176
2019-03-12T02:14:20.747Z,96183
2019-03-12T02:15:30.270Z,96192
2019-03-12T02:16:39.785Z,96190
2019-03-12T02:17:49.307Z,96189
2019-03-12T02:18:58.839Z,96189
2019-03-12T02:20:08.361Z,96191
2019-03-12T02:21:17.871Z,96195
2019-03-12T02:22:27.393Z,96200
2019-03-12T02:23:36.989Z,96210
2019-03-12T02:24:52.392Z,96191
2019-03-12T02:25:56.000Z,96200
2019-03-12T02:27:05.511Z,96201
2019-03-12T02:28:15.016Z,96208
2019-03-12T02:29:24.557Z,96200
2019-03-12T02:30:34.109Z,96208
2019-03-12T02:31:43.617Z,96219
2019-03-12T02:32:53.139Z,96210
2019-03-12T02:34:03.671Z,96216
2019-03-12T02:35:13.191Z,96221
2019-03-12T02:36:22.757Z,96231
2019-03-12T02:37:33.256Z,96222
2019-03-12T02:38:42.786Z,96221
2019-03-12T02:39:52.372Z,96208
2019-03-12T02:41:01.885Z,96220
2019-03-12T02:42:12.727Z,96229
2019-03-12T02:43:20.908Z,96233
2019-03-12T02:44:30.467Z,96228
2019-03-12T02:45:39.984Z,96233
2019-03-12T02:46:49.492Z,96240
2019-03-12T02:47:59.004Z,96232
2019-03-12T02:49:09.624Z,96245
2019-03-12T02:50:18.012Z,96240
2019-03-12T02:51:27.529Z,96235
2019-03-12T02:52:37.067Z,96246
2019-03-12T02:53:46.589Z,96247
2019-03-12T02:54:56.185Z,96248
2019-03-12T02:56:05.698Z,96254
2019-03-12T02:57:15.449Z,96264
2019-03-12T02:58:24.971Z,96256
2019-03-12T02:59:34.527Z,96253
2019-03-12T03:00:44.034Z,96259
2019-03-12T03:01:53.554Z,96258
2019-03-12T03:03:03.285Z,96256
2019-03-12T03:04:12.815Z,96257
2019-03-12T03:05:22.374Z,96260
2019-03-12T03:06:31.885Z,96275
2019-03-12T03:07:41.399Z,96272
2019-03-12T03:08:50.921Z,96278
2019-03-12T03:10:01.039Z,96276
2019-03-12T03:11:10.500Z,96274
2019-03-12T03:12:20.006Z,96274
2019-03-12T03:13:29.617Z,96289
2019-03-12T03:14:39.055Z,96292
2019-03-12T03:15:48.575Z,96288
2019-03-12T03:16:58.097Z,96285
2019-03-12T03:18:07.597Z,96288
2019-03-12T03:19:17.111Z,96294
2019-03-12T03:20:26.650Z,96293
2019-03-12T03:21:36.185Z,96291
2019-03-12T03:22:45.672Z,96286
2019-03-12T03:23:55.206Z,96305
2019-03-12T03:25:04.751Z,96290
2019-03-12T03:26:14.246Z,96298
2019-03-12T03:27:23.765Z,96287
2019-03-12T03:28:33.286Z,96285
2019-03-12T03:29:42.795Z,96293
2019-03-12T03:30:52.308Z,96286
2019-03-12T03:32:01.824Z,96288
2019-03-12T03:33:11.342Z,96299
2019-03-12T03:34:27.188Z,96300
2019-03-12T03:35:31.352Z,96289
2019-03-12T03:36:40.862Z,96296
2019-03-12T03:37:50.366Z,96299
2019-03-12T03:38:59.913Z,96298
2019-03-12T03:40:09.440Z,96301
2019-03-12T03:41:18.945Z,96304
2019-03-12T03:42:28.448Z,96302
2019-03-12T03:43:37.961Z,96306
2019-03-12T03:44:47.484Z,96300
2019-03-12T03:45:56.995Z,96302
2019-03-12T03:47:06.511Z,96300
2019-03-12T03:48:16.039Z,96304
2019-03-12T03:49:25.562Z,96298
2019-03-12T03:50:35.049Z,96299
2019-03-12T03:51:44.572Z,96300
2019-03-12T03:52:54.081Z,96297
2019-03-12T03:54:03.585Z,96307
2019-03-12T03:55:13.097Z,96296
2019-03-12T03:56:22.619Z,96295
2019-03-12T03:57:32.135Z,96299
2019-03-12T03:58:41.647Z,96297
2019-03-12T03:59:51.207Z,96296
2019-03-12T04:01:00.764Z,96301
2019-03-12T04:02:10.272Z,96299
2019-03-12T04:03:20.793Z,96299
2019-03-12T04:04:30.307Z,96297
2019-03-12T04:05:39.849Z,96311
2019-03-12T04:06:50.357Z,96308
2019-03-12T04:07:59.858Z,96305
2019-03-12T04:09:09.413Z,96321
2019-03-12T04:10:19.040Z,96312
2019-03-12T04:11:28.513Z,96316
2019-03-12T04:12:38.034Z,96319
2019-03-12T04:13:47.538Z,96311
2019-03-12T04:14:57.077Z,96311
2019-03-12T04:16:06.629Z,96317
2019-03-12T04:17:16.117Z,96322
2019-03-12T04:18:25.628Z,96327
2019-03-12T04:19:35.177Z,96324
2019-03-12T04:20:44.680Z,96322
2019-03-12T04:21:54.191Z,96322
2019-03-12T04:23:03.706Z,96320
2019-03-12T04:24:13.218Z,96322
2019-03-12T04:25:22.745Z,96325
2019-03-12T04:26:32.260Z,96329
2019-03-12T04:27:41.775Z,96331
2019-03-12T04:28:51.279Z,96341
2019-03-12T04:30:00.796Z,96346
2019-03-12T04:31:10.334Z,96333
2019-03-12T04:32:19.845Z,96334
2019-03-12T04:33:29.357Z,96349
2019-03-12T04:34:38.861Z,96334
2019-03-12T04:35:48.380Z,96354
2019-03-12T04:36:57.907Z,96329
2019-03-12T04:38:07.432Z,96339
2019-03-12T04:39:16.919Z,96335
2019-03-12T04:40:26.448Z,96335
2019-03-12T04:41:35.966Z,96357
2019-03-12T04:42:45.576Z,96332
2019-03-12T04:43:55.000Z,96335
2019-03-12T04:45:04.517Z,96334
2019-03-12T04:46:14.035Z,96343
2019-03-12T04:47:23.550Z,96338
2019-03-12T04:48:33.066Z,96335
2019-03-12T04:49:42.606Z,96335
2019-03-12T04:50:52.117Z,96346
2019-03-12T04:52:01.649Z,96340
2019-03-12T04:53:11.159Z,96337
2019-03-12T04:54:20.673Z,96335
2019-03-12T04:55:30.194Z,96342
2019-03-12T04:56:39.699Z,96340
2019-03-12T04:57:49.210Z,96337
2019-03-12T04:58:58.714Z,96340
2019-03-12T05:00:08.235Z,96341
2019-03-12T05:01:17.753Z,96347
2019-03-12T05:02:27.270Z,96341
2019-03-12T05:03:36.784Z,96344
2019-03-12T05:04:46.295Z,96345
2019-03-12T05:05:56.833Z,96342
2019-03-12T05:07:06.343Z,96340
2019-03-12T05:08:15.854Z,96350
2019-03-12T05:09:25.373Z,96336
2019-03-12T05:10:34.885Z,96338
2019-03-12T05:11:44.455Z,96336
2019-03-12T05:12:53.960Z,96341
2019-03-12T05:14:03.483Z,96350
2019-03-12T05:15:12.983Z,96343
2019-03-12T05:16:22.510Z,96342
2019-03-12T05:17:32.028Z,96340
2019-03-12T05:18:41.537Z,96348
2019-03-12T05:19:51.151Z,96346
2019-03-12T05:21:00.583Z,96344
2019-03-12T05:22:10.109Z,96351
2019-03-12T05:23:19.629Z,96348
2019-03-12T05:24:29.135Z,96337
2019-03-12T05:25:38.674Z,96351
2019-03-12T05:26:48.565Z,96354
2019-03-12T05:27:58.003Z,96369
2019-03-12T05:29:07.507Z,96354
2019-03-12T05:30:17.023Z,96359
2019-03-12T05:31:26.559Z,96354
2019-03-12T05:32:36.077Z,96359
2019-03-12T05:33:45.585Z,96349
2019-03-12T05:34:55.085Z,96358
2019-03-12T05:36:04.607Z,96354
2019-03-12T05:37:14.119Z,96367
2019-03-12T05:38:23.624Z,96359
2019-03-12T05:39:33.129Z,96358
2019-03-12T05:40:42.640Z,96362
2019-03-12T05:41:52.162Z,96365
2019-03-12T05:43:01.669Z,96357
2019-03-12T05:44:11.173Z,96362
2019-03-12T05:45:20.677Z,96365
2019-03-12T05:46:30.200Z,96369
2019-03-12T05:47:39.749Z,96373
2019-03-12T05:48:49.260Z,96371
2019-03-12T05:49:58.780Z,96372
2019-03-12T05:51:08.278Z,96381
2019-03-12T05:52:17.784Z,96373
2019-03-12T05:53:27.291Z,96377
2019-03-12T05:54:36.805Z,96369
2019-03-12T05:55:46.308Z,96371
2019-03-12T05:56:55.846Z,96375
2019-03-12T05:58:05.353Z,96371
2019-03-12T05:59:14.959Z,96383
2019-03-12T06:00:24.371Z,96368
2019-03-12T06:01:33.887Z,96370
2019-03-12T06:02:43.469Z,96375
2019-03-12T06:03:52.897Z,96378
2019-03-12T06:05:02.407Z,96370
2019-03-12T06:06:11.933Z,96374
2019-03-12T06:07:21.570Z,96369
2019-03-12T06:08:30.970Z,96380
2019-03-12T06:09:40.467Z,96377
2019-03-12T06:10:49.976Z,96370
2019-03-12T06:11:59.493Z,96371
2019-03-12T06:13:09.005Z,96374
2019-03-12T06:14:18.509Z,96369
2019-03-12T06:15:28.016Z,96368
2019-03-12T06:16:37.539Z,96373
2019-03-12T06:17:47.042Z,96384
2019-03-12T06:18:56.557Z,96373
2019-03-12T06:20:06.069Z,96377
2019-03-12T06:21:15.630Z,96374
2019-03-12T06:22:25.139Z,96375
2019-03-12T06:23:34.657Z,96379
2019-03-12T06:24:44.465Z,96379
2019-03-12T06:25:53.960Z,96381
2019-03-12T06:27:03.492Z,96388
2019-03-12T06:28:13.001Z,96378
2019-03-12T06:29:22.513Z,96379
2019-03-12T06:30:32.024Z,96378
2019-03-12T06:31:41.557Z,96379
2019-03-12T06:32:51.080Z,96377
2019-03-12T06:34:00.588Z,96370
2019-03-12T06:35:10.090Z,96375
2019-03-12T06:36:19.596Z,96376
2019-03-12T06:37:29.130Z,96377
2019-03-12T06:38:38.650Z,96375
2019-03-12T06:39:48.167Z,96384
2019-03-12T06:40:57.679Z,96377
2019-03-12T06:42:07.989Z,96372
2019-03-12T06:43:16.800Z,96383
2019-03-12T06:44:26.321Z,96371
2019-03-12T06:45:35.849Z,96367
2019-03-12T06:46:45.431Z,96376
2019-03-12T06:47:55.001Z,96370
2019-03-12T06:49:04.513Z,96371
2019-03-12T06:50:14.032Z,96367
2019-03-12T06:51:23.533Z,96372
2019-03-12T06:52:33.047Z,96366
2019-03-12T06:53:42.565Z,96372
2019-03-12T06:54:52.078Z,96368
2019-03-12T06:56:01.597Z,96380
2019-03-12T06:57:11.107Z,96381
2019-03-12T06:58:20.621Z,96377
2019-03-12T06:59:30.131Z,96379
2019-03-12T07:00:39.749Z,96386
2019-03-12T07:01:49.257Z,96387
2019-03-12T07:02:58.763Z,96369
2019-03-12T07:04:08.268Z,96374
2019-03-12T07:05:17.786Z,96376
2019-03-12T07:06:27.303Z,96368
2019-03-12T07:07:36.799Z,96370
2019-03-12T07:08:47.292Z,96375
2019-03-12T07:09:56.798Z,96368
2019-03-12T07:11:06.319Z,96368
2019-03-12T07:12:15.826Z,96367
2019-03-12T07:13:25.333Z,96368
2019-03-12T07:14:34.854Z,96368
2019-03-12T07:15:44.374Z,96376
2019-03-12T07:16:53.877Z,96382
2019-03-12T07:18:03.381Z,96381
2019-03-12T07:19:12.884Z,96371
2019-03-12T07:20:22.408Z,96371
2019-03-12T07:21:31.917Z,96374
2019-03-12T07:22:41.423Z,96374
2019-03-12T07:23:50.929Z,96379
2019-03-12T07:25:00.554Z,96380
2019-03-12T07:26:09.981Z,96372
2019-03-12T07:27:19.493Z,96381
2019-03-12T07:28:29.022Z,96381
2019-03-12T07:29:38.597Z,96378
2019-03-12T07:30:48.124Z,96387
2019-03-12T07:31:57.631Z,96389
2019-03-12T07:33:07.134Z,96380
2019-03-12T07:34:18.022Z,96387
2019-03-12T07:35:26.144Z,96382
2019-03-12T07:36:35.649Z,96386
2019-03-12T07:37:45.148Z,96383
2019-03-12T07:38:54.649Z,96383
2019-03-12T07:40:04.154Z,96379
2019-03-12T07:41:23.158Z,96373
2019-03-12T07:42:24.142Z,96377
2019-03-12T07:43:33.647Z,96380
2019-03-12T07:44:43.148Z,96378
2019-03-12T07:45:52.669Z,96377
2019-03-12T07:47:02.170Z,96371
2019-03-12T07:48:11.674Z,96371
2019-03-12T07:49:21.182Z,96367
2019-03-12T07:50:30.681Z,96366
2019-03-12T07:51:40.207Z,96365
2019-03-12T07:52:49.714Z,96364
2019-03-12T07:53:59.998Z,96358
2019-03-12T07:55:08.728Z,96361
2019-03-12T07:56:18.247Z,96362
2019-03-12T07:57:27.756Z,96361
2019-03-12T07:58:37.251Z,96362
2019-03-12T07:59:46.771Z,96361
2019-03-12T08:00:56.295Z,96358
2019-03-12T08:02:05.794Z,96355
2019-03-12T08:03:15.293Z,96357
2019-03-12T08:04:24.798Z,96362
2019-03-12T08:05:34.299Z,96357
2019-03-12T08:06:43.823Z,96360
2019-03-12T08:07:53.324Z,96361
2019-03-12T08:09:02.858Z,96363
2019-03-12T08:10:12.451Z,96360
2019-03-12T08:11:22.039Z,96358
2019-03-12T08:12:34.163Z,96363
2019-03-12T08:13:41.116Z,96360
2019-03-12T08:14:50.631Z,96372
2019-03-12T08:16:00.142Z,96355
2019-03-12T08:17:09.665Z,96353
2019-03-12T08:18:19.171Z,96355
2019-03-12T08:19:28.668Z,96352
2019-03-12T08:20:38.178Z,96349
2019-03-12T08:21:49.728Z,96348
2019-03-12T08:22:57.233Z,96337
2019-03-12T08:24:06.775Z,96347
2019-03-12T08:25:17.221Z,96344
2019-03-12T08:26:26.831Z,96336
2019-03-12T08:27:36.245Z,96342
2019-03-12T08:28:45.769Z,96337
2019-03-12T08:29:55.276Z,96333
2019-03-12T08:31:04.800Z,96330
2019-03-12T08:32:14.306Z,96330
2019-03-12T08:33:24.800Z,96329
2019-03-12T08:34:34.302Z,96331
2019-03-12T08:35:43.811Z,96316
2019-03-12T08:36:53.382Z,96324
2019-03-12T08:38:02.848Z,96320
2019-03-12T08:39:12.348Z,96317
2019-03-12T08:40:21.852Z,96321
2019-03-12T08:41:31.370Z,96322
2019-03-12T08:42:53.619Z,96327
2019-03-12T08:43:51.348Z,96322
2019-03-12T08:45:00.852Z,96318
2019-03-12T08:46:11.341Z,96309
2019-03-12T08:47:20.853Z,96309
2019-03-12T08:48:30.355Z,96313
2019-03-12T08:49:39.879Z,96304
2019-03-12T08:50:49.361Z,96321
2019-03-12T08:51:58.936Z,96313
2019-03-12T08:53:08.437Z,96310
2019-03-12T08:54:17.978Z,96317
2019-03-12T08:55:27.461Z,96316
2019-03-12T08:56:36.979Z,96314
2019-03-12T08:57:46.484Z,96308
2019-03-12T08:58:55.996Z,96319
2019-03-12T09:00:05.511Z,96300
2019-03-12T09:01:15.011Z,96306
2019-03-12T09:02:24.535Z,96305
2019-03-12T09:03:34.048Z,96300
2019-03-12T09:04:43.544Z,96302
2019-03-12T09:05:53.046Z,96296
2019-03-12T09:07:05.038Z,96294
2019-03-12T09:08:12.072Z,96290
2019-03-12T09:09:21.578Z,96299
2019-03-12T09:10:31.090Z,96296
2019-03-12T09:11:40.611Z,96293
2019-03-12T09:12:50.112Z,96292
2019-03-12T09:13:59.621Z,96288
2019-03-12T09:15:09.131Z,96299
2019-03-12T09:16:18.636Z,96289
2019-03-12T09:17:28.173Z,96285
2019-03-12T09:18:37.672Z,96290
2019-03-12T09:19:47.181Z,96286
2019-03-12T09:20:56.709Z,96282
2019-03-12T09:22:06.230Z,96278
2019-03-12T09:23:15.738Z,96273
2019-03-12T09:24:25.234Z,96278
2019-03-12T09:25:35.746Z,96274
2019-03-12T09:26:45.260Z,96285
2019-03-12T09:27:54.899Z,96285
2019-03-12T09:29:04.538Z,96279
2019-03-12T09:30:14.061Z,96286
2019-03-12T09:31:23.573Z,96278
2019-03-12T09:32:33.096Z,96273
2019-03-12T09:33:42.600Z,96273
2019-03-12T09:34:52.109Z,96274
2019-03-12T09:36:01.614Z,96273
2019-03-12T09:37:11.141Z,96280
2019-03-12T09:38:20.655Z,96272
2019-03-12T09:39:30.159Z,96270
2019-03-12T09:40:39.667Z,96273
2019-03-12T09:41:49.173Z,96269
2019-03-12T09:42:58.708Z,96266
2019-03-12T09:44:08.221Z,96268
2019-03-12T09:45:17.725Z,96268
2019-03-12T09:46:27.217Z,96262
2019-03-12T09:47:36.734Z,96256
2019-03-12T09:48:46.240Z,96253
2019-03-12T09:49:55.755Z,96251
2019-03-12T09:51:05.255Z,96244
2019-03-12T09:52:14.772Z,96248
2019-03-12T09:53:24.279Z,96244
2019-03-12T09:54:33.788Z,96232
2019-03-12T09:55:43.323Z,96229
2019-03-12T09:56:52.823Z,96236
2019-03-12T09:58:02.342Z,96241
2019-03-12T09:59:11.851Z,96236
2019-03-12T10:00:21.360Z,96244
2019-03-12T10:01:30.870Z,96234
2019-03-12T10:02:40.386Z,96247
2019-03-12T10:03:49.895Z,96239
2019-03-12T10:04:59.408Z,96233
2019-03-12T10:06:08.912Z,96235
2019-03-12T10:07:18.436Z,96232
2019-03-12T10:08:27.968Z,96225
2019-03-12T10:09:37.473Z,96224
2019-03-12T10:10:46.981Z,96229
2019-03-12T10:11:56.494Z,96220
2019-03-12T10:13:06.042Z,96214
2019-03-12T10:14:15.551Z,96221
2019-03-12T10:15:25.065Z,96213
2019-03-12T10:16:34.577Z,96233
2019-03-12T10:17:44.106Z,96214
2019-03-12T10:18:53.603Z,96213
2019-03-12T10:20:03.118Z,96217
2019-03-12T10:21:12.629Z,96216
2019-03-12T10:22:22.146Z,96205
2019-03-12T10:23:31.674Z,96204
2019-03-12T10:24:41.184Z,96206
2019-03-12T10:25:50.692Z,96207
2019-03-12T10:27:00.210Z,96196
2019-03-12T10:28:09.736Z,96198
2019-03-12T10:29:19.245Z,96189
2019-03-12T10:30:28.772Z,96186
2019-03-12T10:31:39.282Z,96196
2019-03-12T10:32:48.807Z,96192
2019-03-12T10:33:58.321Z,96190
2019-03-12T10:35:07.853Z,96181
2019-03-12T10:36:17.475Z,96185
2019-03-12T10:37:26.873Z,96188
2019-03-12T10:38:36.383Z,96180
2019-03-12T10:39:45.890Z,96177
2019-03-12T10:40:55.405Z,96180
2019-03-12T10:42:04.921Z,96176
2019-03-12T10:43:14.453Z,96175
2019-03-12T10:44:23.953Z,96178
2019-03-12T10:45:33.497Z,96177
2019-03-12T10:46:42.965Z,96174
2019-03-12T10:47:52.495Z,96176
2019-03-12T10:49:01.995Z,96177
2019-03-12T10:50:11.506Z,96174
2019-03-12T10:51:21.074Z,96171
2019-03-12T10:52:30.556Z,96170
2019-03-12T10:53:40.106Z,96171
2019-03-12T10:54:49.617Z,96170
2019-03-12T10:55:59.124Z,96170
2019-03-12T10:57:08.636Z,96167
2019-03-12T10:58:18.154Z,96165
2019-03-12T10:59:27.662Z,96156
2019-03-12T11:00:37.179Z,96159
2019-03-12T11:01:46.688Z,96155
2019-03-12T11:02:56.209Z,96152
2019-03-12T11:04:05.715Z,96151
2019-03-12T11:05:15.226Z,96146
2019-03-12T11:06:24.730Z,96144
2019-03-12T11:07:34.245Z,96142
2019-03-12T11:08:43.767Z,96147
2019-03-12T11:09:53.291Z,96135
2019-03-12T11:11:02.788Z,96133
2019-03-12T11:12:12.300Z,96126
2019-03-12T11:13:21.834Z,96130
2019-03-12T11:14:31.340Z,96137
2019-03-12T11:15:40.848Z,96117
2019-03-12T11:16:50.355Z,96122
2019-03-12T11:17:59.886Z,96122
2019-03-12T11:19:09.409Z,96112
2019-03-12T11:20:18.931Z,96106
2019-03-12T11:21:28.427Z,96103
2019-03-12T11:22:37.932Z,96105
2019-03-12T11:23:47.447Z,96105
2019-03-12T11:24:56.956Z,96111
2019-03-12T11:26:06.466Z,96105
2019-03-12T11:27:15.982Z,96106
2019-03-12T11:28:26.705Z,96097
2019-03-12T11:29:34.998Z,96096
2019-03-12T11:30:44.506Z,96091
2019-03-12T11:31:54.005Z,96085
2019-03-12T11:33:03.517Z,96082
2019-03-12T11:34:13.054Z,96080
2019-03-12T11:35:22.558Z,96080
2019-03-12T11:36:33.115Z,96076
2019-03-12T11:37:42.824Z,96068
2019-03-12T11:38:52.106Z,96070
2019-03-12T11:40:02.282Z,96065
2019-03-12T11:41:11.132Z,96070
2019-03-12T11:42:20.661Z,96061
2019-03-12T11:43:30.164Z,96054
2019-03-12T11:44:39.680Z,96049
2019-03-12T11:45:49.210Z,96048
2019-03-12T11:46:58.756Z,96047
2019-03-12T11:48:08.393Z,96048
2019-03-12T11:49:17.844Z,96035
2019-03-12T11:50:27.292Z,96031
2019-03-12T11:51:36.851Z,96028
2019-03-12T11:52:54.076Z,96025
2019-03-12T11:53:56.815Z,96019
2019-03-12T11:55:06.339Z,96015
2019-03-12T11:56:15.840Z,96019
2019-03-12T11:57:25.336Z,96009
2019-03-12T11:58:34.963Z,96010
2019-03-12T11:59:44.412Z,96010
2019-03-12T12:00:53.915Z,95998
2019-03-12T12:02:03.426Z,95997
2019-03-12T12:03:12.932Z,95997
2019-03-12T12:04:22.472Z,95992
2019-03-12T12:05:31.982Z,96002
2019-03-12T12:06:42.860Z,95991
2019-03-12T12:07:50.997Z,95988
2019-03-12T12:09:00.562Z,95983
2019-03-12T12:10:10.079Z,95983
2019-03-12T12:11:19.565Z,95977
2019-03-12T12:12:29.079Z,95976
2019-03-12T12:13:38.596Z,95977
2019-03-12T12:14:48.127Z,95973
2019-03-12T12:15:57.643Z,95971
2019-03-12T12:17:08.153Z,95974
2019-03-12T12:18:17.669Z,95957
2019-03-12T12:19:27.185Z,95960
2019-03-12T12:20:36.697Z,95955
2019-03-12T12:21:46.207Z,95951
2019-03-12T12:22:55.718Z,95953
2019-03-12T12:24:05.253Z,95945
2019-03-12T12:25:14.762Z,95946
2019-03-12T12:26:24.284Z,95942
2019-03-12T12:27:33.790Z,95942
2019-03-12T12:28:43.300Z,95939
2019-03-12T12:29:52.838Z,95931
2019-03-12T12:31:02.345Z,95926
2019-03-12T12:32:11.859Z,95928
2019-03-12T12:33:21.377Z,95924
2019-03-12T12:34:30.913Z,95922
2019-03-12T12:35:40.423Z,95924
2019-03-12T12:36:49.929Z,95923
2019-03-12T12:37:59.439Z,95916
2019-03-12T12:39:08.968Z,95914
2019-03-12T12:40:19.500Z,95915
2019-03-12T12:41:29.104Z,95904
2019-03-12T12:42:38.685Z,95901
2019-03-12T12:43:48.349Z,95905
2019-03-12T12:44:57.972Z,95893
2019-03-12T12:46:07.582Z,95893
2019-03-12T12:47:17.150Z,95894
2019-03-12T12:48:26.742Z,95889
2019-03-12T12:49:36.323Z,95881
2019-03-12T12:50:45.829Z,95881
2019-03-12T12:51:56.322Z,95874
2019-03-12T12:53:05.837Z,95870
2019-03-12T12:54:15.357Z,95868
2019-03-12T12:55:24.883Z,95875
2019-03-12T12:56:34.399Z,95876
2019-03-12T12:57:43.907Z,95871
2019-03-12T12:58:53.411Z,95869
2019-03-12T13:00:03.027Z,95869
2019-03-12T13:01:12.531Z,95875
2019-03-12T13:02:22.052Z,95869
2019-03-12T13:03:31.563Z,95867
2019-03-12T13:04:41.102Z,95859
2019-03-12T13:05:50.644Z,95870
2019-03-12T13:07:00.145Z,95861
2019-03-12T13:08:09.652Z,95863
2019-03-12T13:09:19.155Z,95859
2019-03-12T13:10:28.697Z,95860
2019-03-12T13:11:38.204Z,95850
2019-03-12T13:12:47.722Z,95848
2019-03-12T13:13:57.253Z,95844
2019-03-12T13:15:06.783Z,95837
2019-03-12T13:16:24.782Z,95845
2019-03-12T13:17:26.762Z,95837
2019-03-12T13:18:36.279Z,95835
2019-03-12T13:19:46.957Z,95827
2019-03-12T13:20:56.301Z,95822
2019-03-12T13:22:05.818Z,95827
2019-03-12T13:23:15.328Z,95825
2019-03-12T13:24:24.904Z,95827
2019-03-12T13:25:34.496Z,95821
2019-03-12T13:26:44.006Z,95824
2019-03-12T13:27:53.526Z,95827
2019-03-12T13:29:03.047Z,95824
2019-03-12T13:30:12.575Z,95826
2019-03-12T13:31:22.087Z,95825
2019-03-12T13:32:31.743Z,95822
2019-03-12T13:33:41.106Z,95820
2019-03-12T13:34:50.648Z,95813
2019-03-12T13:36:00.152Z,95812
2019-03-12T13:37:09.673Z,95810
2019-03-12T13:38:19.188Z,95807
2019-03-12T13:39:28.809Z,95806
2019-03-12T13:40:38.478Z,95802
2019-03-12T13:41:47.857Z,95797
2019-03-12T13:42:57.390Z,95790
2019-03-12T13:44:06.927Z,95789
2019-03-12T13:45:16.428Z,95787
2019-03-12T13:46:25.942Z,95780
2019-03-12T13:47:35.449Z,95783
2019-03-12T13:48:45.032Z,95787
2019-03-12T13:49:54.481Z,95778
2019-03-12T13:51:05.021Z,95782
2019-03-12T13:52:14.559Z,95773
2019-03-12T13:53:24.053Z,95764
2019-03-12T13:54:33.577Z,95762
2019-03-12T13:55:43.108Z,95756
2019-03-12T13:56:52.633Z,95752
2019-03-12T13:58:02.128Z,95757
2019-03-12T13:59:11.656Z,95742
2019-03-12T14:00:21.174Z,95747
2019-03-12T14:01:30.676Z,95745
2019-03-12T14:02:40.189Z,95744
2019-03-12T14:03:49.707Z,95737
2019-03-12T14:04:59.235Z,95732
2019-03-12T14:06:08.755Z,95735
2019-03-12T14:07:18.270Z,95742
2019-03-12T14:08:27.780Z,95739
2019-03-12T14:09:37.305Z,95743
2019-03-12T14:10:46.837Z,95730
2019-03-12T14:11:59.031Z,95736
2019-03-12T14:13:05.844Z,95725
2019-03-12T14:14:15.357Z,95721
2019-03-12T14:15:24.887Z,95718
2019-03-12T14:16:34.404Z,95717
2019-03-12T14:17:44.930Z,95714
2019-03-12T14:18:54.455Z,95725
2019-03-12T14:20:04.015Z,95712
2019-03-12T14:21:13.538Z,95706
2019-03-12T14:22:23.046Z,95700
2019-03-12T14:23:32.556Z,95703
2019-03-12T14:24:42.078Z,95704
2019-03-12T14:25:51.609Z,95707
2019-03-12T14:27:01.121Z,95698
2019-03-12T14:28:10.644Z,95689
2019-03-12T14:29:20.190Z,95688
2019-03-12T14:30:29.857Z,95686
2019-03-12T14:31:39.278Z,95682
2019-03-12T14:32:48.781Z,95684
2019-03-12T14:33:58.296Z,95683
2019-03-12T14:35:07.809Z,95671
2019-03-12T14:36:17.333Z,95670
2019-03-12T14:37:26.841Z,95675
2019-03-12T14:38:37.338Z,95669
2019-03-12T14:39:46.849Z,95673
2019-03-12T14:40:56.377Z,95669
2019-03-12T14:42:05.897Z,95665
2019-03-12T14:43:15.421Z,95668
2019-03-12T14:44:24.927Z,95675
2019-03-12T14:45:34.457Z,95665
2019-03-12T14:46:43.974Z,95666
2019-03-12T14:47:53.480Z,95667
2019-03-12T14:49:03.000Z,95670
2019-03-12T14:50:12.502Z,95658
2019-03-12T14:51:22.029Z,95661
2019-03-12T14:52:31.535Z,95662
2019-03-12T14:53:41.056Z,95660
2019-03-12T14:54:50.563Z,95660
2019-03-12T14:56:00.082Z,95652